sensor_id;sensor_type;location;lat;lon;timestamp;P1;durP1;ratioP1;P2;durP2;ratioP2
65461;SDS011;53236;43.666;18.444;2024-02-21T00:00:49;16.00;;;11.37;;
65461;SDS011;53236;43.666;18.444;2024-02-21T00:03:15;17.07;;;11.03;;
65461;SDS011;53236;43.666;18.444;2024-02-21T00:05:41;23.43;;;13.57;;
65461;SDS011;53236;43.666;18.444;2024-02-21T00:08:07;18.30;;;11.67;;
65461;SDS011;53236;43.666;18.444;2024-02-21T00:10:32;21.50;;;13.73;;
65461;SDS011;53236;43.666;18.444;2024-02-21T00:12:58;20.90;;;12.93;;
65461;SDS011;53236;43.666;18.444;2024-02-21T00:15:24;19.17;;;12.50;;
65461;SDS011;53236;43.666;18.444;2024-02-21T00:17:50;19.70;;;12.87;;
65461;SDS011;53236;43.666;18.444;2024-02-21T00:20:16;20.33;;;12.53;;
65461;SDS011;53236;43.666;18.444;2024-02-21T00:22:42;21.23;;;13.37;;
65461;SDS011;53236;43.666;18.444;2024-02-21T00:25:12;17.00;;;10.77;;
65461;SDS011;53236;43.666;18.444;2024-02-21T00:27:38;17.97;;;11.30;;
65461;SDS011;53236;43.666;18.444;2024-02-21T00:30:04;12.60;;;8.10;;
65461;SDS011;53236;43.666;18.444;2024-02-21T00:32:31;11.37;;;7.83;;
65461;SDS011;53236;43.666;18.444;2024-02-21T00:34:59;13.63;;;7.77;;
65461;SDS011;53236;43.666;18.444;2024-02-21T00:37:25;25.13;;;12.97;;
65461;SDS011;53236;43.666;18.444;2024-02-21T00:39:50;22.47;;;11.93;;
65461;SDS011;53236;43.666;18.444;2024-02-21T00:42:16;14.97;;;10.20;;
65461;SDS011;53236;43.666;18.444;2024-02-21T00:44:42;19.53;;;11.33;;
65461;SDS011;53236;43.666;18.444;2024-02-21T00:47:07;20.87;;;11.10;;
65461;SDS011;53236;43.666;18.444;2024-02-21T00:49:34;18.13;;;10.93;;
65461;SDS011;53236;43.666;18.444;2024-02-21T00:52:00;19.00;;;11.37;;
65461;SDS011;53236;43.666;18.444;2024-02-21T00:54:26;23.93;;;12.00;;
65461;SDS011;53236;43.666;18.444;2024-02-21T00:56:52;32.00;;;20.00;;
65461;SDS011;53236;43.666;18.444;2024-02-21T00:59:17;29.33;;;19.27;;
65461;SDS011;53236;43.666;18.444;2024-02-21T01:01:43;23.80;;;15.20;;
65461;SDS011;53236;43.666;18.444;2024-02-21T01:04:09;27.77;;;15.90;;
65461;SDS011;53236;43.666;18.444;2024-02-21T01:06:35;24.07;;;14.17;;
65461;SDS011;53236;43.666;18.444;2024-02-21T01:09:01;22.60;;;13.53;;
65461;SDS011;53236;43.666;18.444;2024-02-21T01:11:26;22.60;;;13.37;;
65461;SDS011;53236;43.666;18.444;2024-02-21T01:13:52;17.63;;;11.20;;
65461;SDS011;53236;43.666;18.444;2024-02-21T01:16:18;16.87;;;10.30;;
65461;SDS011;53236;43.666;18.444;2024-02-21T01:18:44;15.33;;;9.30;;
65461;SDS011;53236;43.666;18.444;2024-02-21T01:21:10;13.93;;;8.60;;
65461;SDS011;53236;43.666;18.444;2024-02-21T01:23:36;35.13;;;16.87;;
65461;SDS011;53236;43.666;18.444;2024-02-21T01:26:03;30.27;;;16.23;;
65461;SDS011;53236;43.666;18.444;2024-02-21T01:28:29;34.37;;;18.13;;
65461;SDS011;53236;43.666;18.444;2024-02-21T01:30:56;29.20;;;15.27;;
65461;SDS011;53236;43.666;18.444;2024-02-21T01:33:22;17.63;;;9.73;;
65461;SDS011;53236;43.666;18.444;2024-02-21T01:35:48;18.90;;;10.10;;
65461;SDS011;53236;43.666;18.444;2024-02-21T01:38:15;15.43;;;9.97;;
65461;SDS011;53236;43.666;18.444;2024-02-21T01:40:41;14.03;;;8.90;;
65461;SDS011;53236;43.666;18.444;2024-02-21T01:43:16;12.43;;;7.63;;
65461;SDS011;53236;43.666;18.444;2024-02-21T01:45:49;11.87;;;7.83;;
65461;SDS011;53236;43.666;18.444;2024-02-21T01:48:17;13.47;;;7.97;;
65461;SDS011;53236;43.666;18.444;2024-02-21T01:50:46;14.40;;;8.13;;
65461;SDS011;53236;43.666;18.444;2024-02-21T01:53:14;13.13;;;7.90;;
65461;SDS011;53236;43.666;18.444;2024-02-21T01:55:45;13.63;;;7.73;;
65461;SDS011;53236;43.666;18.444;2024-02-21T01:58:14;16.33;;;10.03;;
65461;SDS011;53236;43.666;18.444;2024-02-21T02:00:41;14.80;;;9.20;;
65461;SDS011;53236;43.666;18.444;2024-02-21T02:03:11;16.07;;;9.67;;
65461;SDS011;53236;43.666;18.444;2024-02-21T02:05:50;14.13;;;9.27;;
65461;SDS011;53236;43.666;18.444;2024-02-21T02:08:17;16.00;;;9.43;;
65461;SDS011;53236;43.666;18.444;2024-02-21T02:10:47;15.40;;;9.17;;
65461;SDS011;53236;43.666;18.444;2024-02-21T02:13:13;15.40;;;10.07;;
65461;SDS011;53236;43.666;18.444;2024-02-21T02:18:15;23.65;;;11.60;;
65461;SDS011;53236;43.666;18.444;2024-02-21T02:20:41;15.90;;;10.13;;
65461;SDS011;53236;43.666;18.444;2024-02-21T02:23:22;15.83;;;9.67;;
65461;SDS011;53236;43.666;18.444;2024-02-21T02:28:14;16.75;;;10.45;;
65461;SDS011;53236;43.666;18.444;2024-02-21T02:30:40;13.10;;;9.40;;
65461;SDS011;53236;43.666;18.444;2024-02-21T02:33:06;16.90;;;9.13;;
65461;SDS011;53236;43.666;18.444;2024-02-21T02:35:32;13.73;;;8.80;;
65461;SDS011;53236;43.666;18.444;2024-02-21T02:37:58;13.07;;;8.63;;
65461;SDS011;53236;43.666;18.444;2024-02-21T02:40:24;15.30;;;8.53;;
65461;SDS011;53236;43.666;18.444;2024-02-21T02:42:50;13.30;;;8.33;;
65461;SDS011;53236;43.666;18.444;2024-02-21T02:45:16;16.03;;;9.10;;
65461;SDS011;53236;43.666;18.444;2024-02-21T02:47:45;14.07;;;8.93;;
65461;SDS011;53236;43.666;18.444;2024-02-21T02:50:12;14.27;;;8.67;;
65461;SDS011;53236;43.666;18.444;2024-02-21T02:52:38;17.87;;;10.23;;
65461;SDS011;53236;43.666;18.444;2024-02-21T02:55:05;14.50;;;9.40;;
65461;SDS011;53236;43.666;18.444;2024-02-21T02:57:31;15.03;;;9.67;;
65461;SDS011;53236;43.666;18.444;2024-02-21T02:59:57;15.03;;;9.67;;
65461;SDS011;53236;43.666;18.444;2024-02-21T03:02:23;16.27;;;9.07;;
65461;SDS011;53236;43.666;18.444;2024-02-21T03:04:49;14.37;;;8.70;;
65461;SDS011;53236;43.666;18.444;2024-02-21T03:07:15;12.97;;;8.33;;
65461;SDS011;53236;43.666;18.444;2024-02-21T03:09:41;14.47;;;8.40;;
65461;SDS011;53236;43.666;18.444;2024-02-21T03:12:10;10.77;;;7.37;;
65461;SDS011;53236;43.666;18.444;2024-02-21T03:14:36;11.87;;;7.83;;
65461;SDS011;53236;43.666;18.444;2024-02-21T03:17:02;11.20;;;7.70;;
65461;SDS011;53236;43.666;18.444;2024-02-21T03:19:28;13.20;;;8.43;;
65461;SDS011;53236;43.666;18.444;2024-02-21T03:21:54;13.20;;;8.27;;
65461;SDS011;53236;43.666;18.444;2024-02-21T03:24:20;14.30;;;9.00;;
65461;SDS011;53236;43.666;18.444;2024-02-21T03:26:46;15.47;;;9.27;;
65461;SDS011;53236;43.666;18.444;2024-02-21T03:29:14;14.47;;;10.03;;
65461;SDS011;53236;43.666;18.444;2024-02-21T03:31:43;15.27;;;9.50;;
65461;SDS011;53236;43.666;18.444;2024-02-21T03:34:10;12.13;;;7.20;;
65461;SDS011;53236;43.666;18.444;2024-02-21T03:36:36;12.60;;;7.80;;
65461;SDS011;53236;43.666;18.444;2024-02-21T03:39:02;15.43;;;8.50;;
65461;SDS011;53236;43.666;18.444;2024-02-21T03:41:28;12.13;;;8.60;;
65461;SDS011;53236;43.666;18.444;2024-02-21T03:43:54;17.53;;;9.70;;
65461;SDS011;53236;43.666;18.444;2024-02-21T03:46:20;17.67;;;9.40;;
65461;SDS011;53236;43.666;18.444;2024-02-21T03:48:45;14.97;;;10.00;;
65461;SDS011;53236;43.666;18.444;2024-02-21T03:51:11;16.03;;;10.57;;
65461;SDS011;53236;43.666;18.444;2024-02-21T03:53:37;19.30;;;10.63;;
65461;SDS011;53236;43.666;18.444;2024-02-21T03:56:03;15.00;;;9.70;;
65461;SDS011;53236;43.666;18.444;2024-02-21T03:58:32;14.40;;;9.47;;
65461;SDS011;53236;43.666;18.444;2024-02-21T04:01:01;13.13;;;9.10;;
65461;SDS011;53236;43.666;18.444;2024-02-21T04:03:27;14.53;;;9.37;;
65461;SDS011;53236;43.666;18.444;2024-02-21T04:05:53;14.53;;;9.60;;
65461;SDS011;53236;43.666;18.444;2024-02-21T04:08:19;16.00;;;9.77;;
65461;SDS011;53236;43.666;18.444;2024-02-21T04:10:45;15.97;;;8.77;;
65461;SDS011;53236;43.666;18.444;2024-02-21T04:13:10;14.20;;;9.13;;
65461;SDS011;53236;43.666;18.444;2024-02-21T04:15:36;14.33;;;8.23;;
65461;SDS011;53236;43.666;18.444;2024-02-21T04:18:02;11.80;;;8.43;;
65461;SDS011;53236;43.666;18.444;2024-02-21T04:20:28;18.53;;;11.60;;
65461;SDS011;53236;43.666;18.444;2024-02-21T04:22:54;49.00;;;27.33;;
65461;SDS011;53236;43.666;18.444;2024-02-21T04:25:20;21.93;;;13.70;;
65461;SDS011;53236;43.666;18.444;2024-02-21T04:27:46;18.43;;;12.07;;
65461;SDS011;53236;43.666;18.444;2024-02-21T04:30:12;17.93;;;11.03;;
65461;SDS011;53236;43.666;18.444;2024-02-21T04:32:38;15.83;;;10.27;;
65461;SDS011;53236;43.666;18.444;2024-02-21T04:35:05;13.97;;;8.57;;
65461;SDS011;53236;43.666;18.444;2024-02-21T04:37:32;15.20;;;9.40;;
65461;SDS011;53236;43.666;18.444;2024-02-21T04:39:58;16.20;;;9.80;;
65461;SDS011;53236;43.666;18.444;2024-02-21T04:42:23;14.60;;;9.13;;
65461;SDS011;53236;43.666;18.444;2024-02-21T04:44:49;13.00;;;9.33;;
65461;SDS011;53236;43.666;18.444;2024-02-21T04:47:15;17.10;;;11.47;;
65461;SDS011;53236;43.666;18.444;2024-02-21T04:49:41;14.87;;;10.53;;
65461;SDS011;53236;43.666;18.444;2024-02-21T04:52:06;18.17;;;10.87;;
65461;SDS011;53236;43.666;18.444;2024-02-21T04:54:32;15.10;;;10.63;;
65461;SDS011;53236;43.666;18.444;2024-02-21T04:57:00;14.97;;;11.07;;
65461;SDS011;53236;43.666;18.444;2024-02-21T04:59:26;18.57;;;10.93;;
65461;SDS011;53236;43.666;18.444;2024-02-21T05:01:52;14.90;;;10.50;;
65461;SDS011;53236;43.666;18.444;2024-02-21T05:04:18;17.37;;;10.73;;
65461;SDS011;53236;43.666;18.444;2024-02-21T05:06:43;15.93;;;10.10;;
65461;SDS011;53236;43.666;18.444;2024-02-21T05:09:09;14.33;;;10.13;;
65461;SDS011;53236;43.666;18.444;2024-02-21T05:11:35;15.20;;;10.33;;
65461;SDS011;53236;43.666;18.444;2024-02-21T05:14:02;15.60;;;11.10;;
65461;SDS011;53236;43.666;18.444;2024-02-21T05:16:29;14.87;;;9.93;;
65461;SDS011;53236;43.666;18.444;2024-02-21T05:18:55;21.33;;;14.93;;
65461;SDS011;53236;43.666;18.444;2024-02-21T05:21:22;19.37;;;13.43;;
65461;SDS011;53236;43.666;18.444;2024-02-21T05:23:49;17.13;;;12.80;;
65461;SDS011;53236;43.666;18.444;2024-02-21T05:26:21;18.87;;;11.10;;
65461;SDS011;53236;43.666;18.444;2024-02-21T05:28:51;20.75;;;12.68;;
65461;SDS011;53236;43.666;18.444;2024-02-21T05:31:17;19.70;;;13.77;;
65461;SDS011;53236;43.666;18.444;2024-02-21T05:33:43;18.37;;;13.47;;
65461;SDS011;53236;43.666;18.444;2024-02-21T05:36:10;19.10;;;12.67;;
65461;SDS011;53236;43.666;18.444;2024-02-21T05:38:36;19.03;;;12.60;;
65461;SDS011;53236;43.666;18.444;2024-02-21T05:41:02;18.90;;;14.33;;
65461;SDS011;53236;43.666;18.444;2024-02-21T05:43:29;17.73;;;13.13;;
65461;SDS011;53236;43.666;18.444;2024-02-21T05:45:55;18.10;;;13.40;;
65461;SDS011;53236;43.666;18.444;2024-02-21T05:48:24;25.80;;;17.83;;
65461;SDS011;53236;43.666;18.444;2024-02-21T05:50:49;19.00;;;13.67;;
65461;SDS011;53236;43.666;18.444;2024-02-21T05:53:15;20.50;;;14.47;;
65461;SDS011;53236;43.666;18.444;2024-02-21T05:55:41;21.60;;;14.67;;
65461;SDS011;53236;43.666;18.444;2024-02-21T05:58:07;21.13;;;14.53;;
65461;SDS011;53236;43.666;18.444;2024-02-21T06:00:37;21.90;;;16.50;;
65461;SDS011;53236;43.666;18.444;2024-02-21T06:03:02;27.37;;;19.43;;
65461;SDS011;53236;43.666;18.444;2024-02-21T06:05:28;22.37;;;15.87;;
65461;SDS011;53236;43.666;18.444;2024-02-21T06:07:54;19.10;;;14.23;;
65461;SDS011;53236;43.666;18.444;2024-02-21T06:10:20;18.80;;;13.87;;
65461;SDS011;53236;43.666;18.444;2024-02-21T06:12:46;17.00;;;12.10;;
65461;SDS011;53236;43.666;18.444;2024-02-21T06:15:11;17.97;;;11.93;;
65461;SDS011;53236;43.666;18.444;2024-02-21T06:17:37;17.30;;;12.10;;
65461;SDS011;53236;43.666;18.444;2024-02-21T06:20:03;18.53;;;13.10;;
65461;SDS011;53236;43.666;18.444;2024-02-21T06:22:30;17.17;;;12.50;;
65461;SDS011;53236;43.666;18.444;2024-02-21T06:24:56;14.70;;;11.57;;
65461;SDS011;53236;43.666;18.444;2024-02-21T06:27:21;19.03;;;11.50;;
65461;SDS011;53236;43.666;18.444;2024-02-21T06:29:47;19.13;;;13.43;;
65461;SDS011;53236;43.666;18.444;2024-02-21T06:32:13;22.53;;;15.80;;
65461;SDS011;53236;43.666;18.444;2024-02-21T06:34:38;21.73;;;16.03;;
65461;SDS011;53236;43.666;18.444;2024-02-21T06:37:04;22.57;;;16.80;;
65461;SDS011;53236;43.666;18.444;2024-02-21T06:39:30;21.43;;;14.63;;
65461;SDS011;53236;43.666;18.444;2024-02-21T06:41:56;18.53;;;13.30;;
65461;SDS011;53236;43.666;18.444;2024-02-21T06:44:21;17.97;;;13.67;;
65461;SDS011;53236;43.666;18.444;2024-02-21T06:46:47;18.73;;;13.53;;
65461;SDS011;53236;43.666;18.444;2024-02-21T06:49:13;18.60;;;14.13;;
65461;SDS011;53236;43.666;18.444;2024-02-21T06:51:42;28.37;;;19.60;;
65461;SDS011;53236;43.666;18.444;2024-02-21T06:54:08;30.90;;;22.00;;
65461;SDS011;53236;43.666;18.444;2024-02-21T06:56:35;34.53;;;24.00;;
65461;SDS011;53236;43.666;18.444;2024-02-21T06:59:02;33.77;;;26.07;;
65461;SDS011;53236;43.666;18.444;2024-02-21T07:01:30;34.43;;;26.17;;
65461;SDS011;53236;43.666;18.444;2024-02-21T07:03:56;32.77;;;26.27;;
65461;SDS011;53236;43.666;18.444;2024-02-21T07:06:22;34.43;;;26.10;;
65461;SDS011;53236;43.666;18.444;2024-02-21T07:08:48;31.23;;;23.57;;
65461;SDS011;53236;43.666;18.444;2024-02-21T07:11:14;27.87;;;21.73;;
65461;SDS011;53236;43.666;18.444;2024-02-21T07:13:40;25.03;;;19.60;;
65461;SDS011;53236;43.666;18.444;2024-02-21T07:16:06;27.23;;;18.13;;
65461;SDS011;53236;43.666;18.444;2024-02-21T07:18:32;26.00;;;20.00;;
65461;SDS011;53236;43.666;18.444;2024-02-21T07:20:58;27.53;;;19.90;;
65461;SDS011;53236;43.666;18.444;2024-02-21T07:23:24;27.23;;;21.57;;
65461;SDS011;53236;43.666;18.444;2024-02-21T07:25:50;36.00;;;28.23;;
65461;SDS011;53236;43.666;18.444;2024-02-21T07:28:16;36.40;;;28.23;;
65461;SDS011;53236;43.666;18.444;2024-02-21T07:30:42;37.93;;;28.47;;
65461;SDS011;53236;43.666;18.444;2024-02-21T07:33:08;21.87;;;16.77;;
65461;SDS011;53236;43.666;18.444;2024-02-21T07:35:34;17.40;;;12.77;;
65461;SDS011;53236;43.666;18.444;2024-02-21T07:38:03;29.30;;;20.30;;
65461;SDS011;53236;43.666;18.444;2024-02-21T07:40:30;25.57;;;19.80;;
65461;SDS011;53236;43.666;18.444;2024-02-21T07:42:55;22.83;;;18.50;;
65461;SDS011;53236;43.666;18.444;2024-02-21T07:45:21;23.80;;;15.87;;
65461;SDS011;53236;43.666;18.444;2024-02-21T07:47:48;22.93;;;16.13;;
65461;SDS011;53236;43.666;18.444;2024-02-21T07:50:14;20.77;;;16.53;;
65461;SDS011;53236;43.666;18.444;2024-02-21T07:52:40;23.63;;;16.43;;
65461;SDS011;53236;43.666;18.444;2024-02-21T07:55:07;19.83;;;14.17;;
65461;SDS011;53236;43.666;18.444;2024-02-21T07:57:35;22.10;;;16.00;;
65461;SDS011;53236;43.666;18.444;2024-02-21T08:00:01;26.60;;;20.60;;
65461;SDS011;53236;43.666;18.444;2024-02-21T08:02:29;39.70;;;29.33;;
65461;SDS011;53236;43.666;18.444;2024-02-21T08:04:54;32.00;;;21.67;;
65461;SDS011;53236;43.666;18.444;2024-02-21T08:07:20;25.43;;;19.70;;
65461;SDS011;53236;43.666;18.444;2024-02-21T08:09:46;28.50;;;18.70;;
65461;SDS011;53236;43.666;18.444;2024-02-21T08:12:12;29.00;;;19.70;;
65461;SDS011;53236;43.666;18.444;2024-02-21T08:14:37;29.40;;;22.10;;
65461;SDS011;53236;43.666;18.444;2024-02-21T08:17:03;31.17;;;22.43;;
65461;SDS011;53236;43.666;18.444;2024-02-21T08:19:29;29.30;;;20.87;;
65461;SDS011;53236;43.666;18.444;2024-02-21T08:21:55;28.60;;;20.13;;
65461;SDS011;53236;43.666;18.444;2024-02-21T08:24:21;26.50;;;19.30;;
65461;SDS011;53236;43.666;18.444;2024-02-21T08:26:48;24.57;;;19.70;;
65461;SDS011;53236;43.666;18.444;2024-02-21T08:29:13;24.10;;;19.00;;
65461;SDS011;53236;43.666;18.444;2024-02-21T08:31:39;24.73;;;18.57;;
65461;SDS011;53236;43.666;18.444;2024-02-21T08:34:05;24.63;;;17.47;;
65461;SDS011;53236;43.666;18.444;2024-02-21T08:36:31;22.30;;;17.07;;
65461;SDS011;53236;43.666;18.444;2024-02-21T08:38:58;18.30;;;14.00;;
65461;SDS011;53236;43.666;18.444;2024-02-21T08:41:24;16.90;;;13.03;;
65461;SDS011;53236;43.666;18.444;2024-02-21T08:43:53;20.27;;;15.20;;
65461;SDS011;53236;43.666;18.444;2024-02-21T08:46:19;19.00;;;14.43;;
65461;SDS011;53236;43.666;18.444;2024-02-21T08:48:46;17.30;;;13.27;;
65461;SDS011;53236;43.666;18.444;2024-02-21T08:51:15;21.10;;;13.73;;
65461;SDS011;53236;43.666;18.444;2024-02-21T08:53:40;14.73;;;10.80;;
65461;SDS011;53236;43.666;18.444;2024-02-21T08:56:06;15.67;;;11.87;;
65461;SDS011;53236;43.666;18.444;2024-02-21T08:58:35;19.73;;;14.47;;
65461;SDS011;53236;43.666;18.444;2024-02-21T09:01:04;22.07;;;15.60;;
65461;SDS011;53236;43.666;18.444;2024-02-21T09:03:32;27.60;;;17.47;;
65461;SDS011;53236;43.666;18.444;2024-02-21T09:05:58;20.20;;;14.90;;
65461;SDS011;53236;43.666;18.444;2024-02-21T09:08:24;27.03;;;19.37;;
65461;SDS011;53236;43.666;18.444;2024-02-21T09:10:51;27.80;;;19.80;;
65461;SDS011;53236;43.666;18.444;2024-02-21T09:13:17;31.60;;;22.37;;
65461;SDS011;53236;43.666;18.444;2024-02-21T09:15:43;24.97;;;16.93;;
65461;SDS011;53236;43.666;18.444;2024-02-21T09:18:08;12.23;;;8.90;;
65461;SDS011;53236;43.666;18.444;2024-02-21T09:20:34;13.80;;;9.97;;
65461;SDS011;53236;43.666;18.444;2024-02-21T09:23:00;12.37;;;8.73;;
65461;SDS011;53236;43.666;18.444;2024-02-21T09:25:26;18.30;;;11.43;;
65461;SDS011;53236;43.666;18.444;2024-02-21T09:27:53;17.30;;;11.30;;
65461;SDS011;53236;43.666;18.444;2024-02-21T09:30:19;16.97;;;12.50;;
65461;SDS011;53236;43.666;18.444;2024-02-21T09:32:46;17.33;;;13.07;;
65461;SDS011;53236;43.666;18.444;2024-02-21T09:35:12;17.93;;;13.03;;
65461;SDS011;53236;43.666;18.444;2024-02-21T09:37:38;20.27;;;15.23;;
65461;SDS011;53236;43.666;18.444;2024-02-21T09:40:04;22.63;;;17.00;;
65461;SDS011;53236;43.666;18.444;2024-02-21T09:42:40;26.27;;;18.03;;
65461;SDS011;53236;43.666;18.444;2024-02-21T09:45:27;22.10;;;15.98;;
65461;SDS011;53236;43.666;18.444;2024-02-21T09:50:47;18.90;;;14.20;;
65461;SDS011;53236;43.666;18.444;2024-02-21T09:53:15;18.30;;;14.40;;
65461;SDS011;53236;43.666;18.444;2024-02-21T09:55:43;17.37;;;13.17;;
65461;SDS011;53236;43.666;18.444;2024-02-21T09:58:11;24.13;;;14.33;;
65461;SDS011;53236;43.666;18.444;2024-02-21T10:00:37;20.77;;;15.87;;
65461;SDS011;53236;43.666;18.444;2024-02-21T10:03:03;20.97;;;14.93;;
65461;SDS011;53236;43.666;18.444;2024-02-21T10:05:35;20.73;;;15.30;;
65461;SDS011;53236;43.666;18.444;2024-02-21T10:08:02;17.50;;;13.40;;
65461;SDS011;53236;43.666;18.444;2024-02-21T10:10:29;19.27;;;15.13;;
65461;SDS011;53236;43.666;18.444;2024-02-21T10:12:55;17.00;;;12.53;;
65461;SDS011;53236;43.666;18.444;2024-02-21T10:15:23;25.27;;;18.27;;
65461;SDS011;53236;43.666;18.444;2024-02-21T10:17:59;16.97;;;12.93;;
65461;SDS011;53236;43.666;18.444;2024-02-21T10:20:26;16.20;;;11.37;;
65461;SDS011;53236;43.666;18.444;2024-02-21T10:23:02;12.57;;;10.07;;
65461;SDS011;53236;43.666;18.444;2024-02-21T10:25:33;16.07;;;12.10;;
65461;SDS011;53236;43.666;18.444;2024-02-21T10:28:00;16.77;;;12.27;;
65461;SDS011;53236;43.666;18.444;2024-02-21T10:30:27;20.43;;;16.27;;
65461;SDS011;53236;43.666;18.444;2024-02-21T10:32:53;14.67;;;11.43;;
65461;SDS011;53236;43.666;18.444;2024-02-21T10:35:29;13.30;;;10.73;;
65461;SDS011;53236;43.666;18.444;2024-02-21T10:37:56;16.93;;;12.70;;
65461;SDS011;53236;43.666;18.444;2024-02-21T10:40:25;16.03;;;12.40;;
65461;SDS011;53236;43.666;18.444;2024-02-21T10:42:54;15.57;;;10.53;;
65461;SDS011;53236;43.666;18.444;2024-02-21T10:45:21;13.40;;;9.77;;
65461;SDS011;53236;43.666;18.444;2024-02-21T10:47:54;14.47;;;10.97;;
65461;SDS011;53236;43.666;18.444;2024-02-21T10:50:25;12.70;;;9.73;;
65461;SDS011;53236;43.666;18.444;2024-02-21T10:52:56;11.63;;;9.20;;
65461;SDS011;53236;43.666;18.444;2024-02-21T10:55:51;15.27;;;10.60;;
65461;SDS011;53236;43.666;18.444;2024-02-21T10:58:24;12.53;;;10.23;;
65461;SDS011;53236;43.666;18.444;2024-02-21T11:00:50;15.00;;;10.70;;
65461;SDS011;53236;43.666;18.444;2024-02-21T11:03:17;14.60;;;9.63;;
65461;SDS011;53236;43.666;18.444;2024-02-21T11:05:43;11.07;;;8.93;;
65461;SDS011;53236;43.666;18.444;2024-02-21T11:08:10;12.57;;;8.73;;
65461;SDS011;53236;43.666;18.444;2024-02-21T11:10:36;10.53;;;7.37;;
65461;SDS011;53236;43.666;18.444;2024-02-21T11:13:08;11.43;;;7.93;;
65461;SDS011;53236;43.666;18.444;2024-02-21T11:15:34;12.03;;;9.03;;
65461;SDS011;53236;43.666;18.444;2024-02-21T11:18:00;11.23;;;9.57;;
65461;SDS011;53236;43.666;18.444;2024-02-21T11:20:35;20.40;;;15.07;;
65461;SDS011;53236;43.666;18.444;2024-02-21T11:25:30;11.70;;;9.52;;
65461;SDS011;53236;43.666;18.444;2024-02-21T11:28:01;14.47;;;10.93;;
65461;SDS011;53236;43.666;18.444;2024-02-21T11:30:32;15.67;;;12.73;;
65461;SDS011;53236;43.666;18.444;2024-02-21T11:33:00;15.60;;;9.90;;
65461;SDS011;53236;43.666;18.444;2024-02-21T11:35:34;11.47;;;9.57;;
65461;SDS011;53236;43.666;18.444;2024-02-21T11:38:13;10.33;;;8.17;;
65461;SDS011;53236;43.666;18.444;2024-02-21T11:40:43;9.77;;;7.50;;
65461;SDS011;53236;43.666;18.444;2024-02-21T11:43:10;8.63;;;6.77;;
65461;SDS011;53236;43.666;18.444;2024-02-21T11:45:36;9.77;;;6.73;;
65461;SDS011;53236;43.666;18.444;2024-02-21T11:48:03;11.17;;;6.90;;
65461;SDS011;53236;43.666;18.444;2024-02-21T11:50:30;10.13;;;7.20;;
65461;SDS011;53236;43.666;18.444;2024-02-21T11:52:57;9.90;;;7.60;;
65461;SDS011;53236;43.666;18.444;2024-02-21T11:55:23;13.53;;;9.83;;
65461;SDS011;53236;43.666;18.444;2024-02-21T11:57:49;11.40;;;7.83;;
65461;SDS011;53236;43.666;18.444;2024-02-21T12:00:15;12.23;;;6.73;;
65461;SDS011;53236;43.666;18.444;2024-02-21T12:02:43;14.40;;;7.97;;
65461;SDS011;53236;43.666;18.444;2024-02-21T12:05:10;13.87;;;8.43;;
65461;SDS011;53236;43.666;18.444;2024-02-21T12:07:37;10.03;;;7.50;;
65461;SDS011;53236;43.666;18.444;2024-02-21T12:10:15;7.97;;;5.60;;
65461;SDS011;53236;43.666;18.444;2024-02-21T12:12:41;8.63;;;6.10;;
65461;SDS011;53236;43.666;18.444;2024-02-21T12:15:07;8.20;;;5.77;;
65461;SDS011;53236;43.666;18.444;2024-02-21T12:17:34;6.43;;;4.97;;
65461;SDS011;53236;43.666;18.444;2024-02-21T12:20:00;6.07;;;5.00;;
65461;SDS011;53236;43.666;18.444;2024-02-21T12:22:39;6.73;;;4.90;;
65461;SDS011;53236;43.666;18.444;2024-02-21T12:25:16;7.83;;;5.33;;
65461;SDS011;53236;43.666;18.444;2024-02-21T12:27:47;5.80;;;4.50;;
65461;SDS011;53236;43.666;18.444;2024-02-21T12:30:14;6.90;;;4.23;;
65461;SDS011;53236;43.666;18.444;2024-02-21T12:32:40;6.33;;;4.57;;
65461;SDS011;53236;43.666;18.444;2024-02-21T12:35:06;6.37;;;4.37;;
65461;SDS011;53236;43.666;18.444;2024-02-21T12:37:33;4.50;;;3.20;;
65461;SDS011;53236;43.666;18.444;2024-02-21T12:39:58;4.27;;;3.27;;
65461;SDS011;53236;43.666;18.444;2024-02-21T12:42:25;4.57;;;3.37;;
65461;SDS011;53236;43.666;18.444;2024-02-21T12:44:51;4.27;;;3.03;;
65461;SDS011;53236;43.666;18.444;2024-02-21T12:47:18;6.17;;;3.60;;
65461;SDS011;53236;43.666;18.444;2024-02-21T12:49:45;7.30;;;4.07;;
65461;SDS011;53236;43.666;18.444;2024-02-21T12:52:11;5.27;;;3.70;;
65461;SDS011;53236;43.666;18.444;2024-02-21T12:54:38;4.97;;;3.50;;
65461;SDS011;53236;43.666;18.444;2024-02-21T12:57:04;4.17;;;3.00;;
65461;SDS011;53236;43.666;18.444;2024-02-21T12:59:30;3.07;;;2.30;;
65461;SDS011;53236;43.666;18.444;2024-02-21T13:01:55;3.80;;;2.37;;
65461;SDS011;53236;43.666;18.444;2024-02-21T13:04:21;4.03;;;2.33;;
65461;SDS011;53236;43.666;18.444;2024-02-21T13:06:48;2.40;;;1.73;;
65461;SDS011;53236;43.666;18.444;2024-02-21T13:09:14;2.67;;;1.70;;
65461;SDS011;53236;43.666;18.444;2024-02-21T13:11:40;2.73;;;1.90;;
65461;SDS011;53236;43.666;18.444;2024-02-21T13:14:07;5.33;;;2.60;;
65461;SDS011;53236;43.666;18.444;2024-02-21T13:16:33;4.57;;;3.03;;
65461;SDS011;53236;43.666;18.444;2024-02-21T13:19:07;4.97;;;3.53;;
65461;SDS011;53236;43.666;18.444;2024-02-21T13:21:34;7.97;;;4.10;;
65461;SDS011;53236;43.666;18.444;2024-02-21T13:24:00;5.80;;;4.30;;
65461;SDS011;53236;43.666;18.444;2024-02-21T13:26:26;5.80;;;4.27;;
65461;SDS011;53236;43.666;18.444;2024-02-21T13:28:52;5.87;;;3.77;;
65461;SDS011;53236;43.666;18.444;2024-02-21T13:31:18;6.77;;;4.10;;
65461;SDS011;53236;43.666;18.444;2024-02-21T13:33:44;6.63;;;4.17;;
65461;SDS011;53236;43.666;18.444;2024-02-21T13:36:10;5.90;;;4.07;;
65461;SDS011;53236;43.666;18.444;2024-02-21T13:38:36;6.07;;;4.20;;
65461;SDS011;53236;43.666;18.444;2024-02-21T13:41:04;6.83;;;4.20;;
65461;SDS011;53236;43.666;18.444;2024-02-21T13:43:31;5.40;;;4.00;;
65461;SDS011;53236;43.666;18.444;2024-02-21T13:45:57;4.93;;;3.57;;
65461;SDS011;53236;43.666;18.444;2024-02-21T13:48:25;4.67;;;3.60;;
65461;SDS011;53236;43.666;18.444;2024-02-21T13:50:52;6.27;;;3.90;;
65461;SDS011;53236;43.666;18.444;2024-02-21T13:53:17;6.70;;;4.00;;
65461;SDS011;53236;43.666;18.444;2024-02-21T13:55:46;5.57;;;3.67;;
65461;SDS011;53236;43.666;18.444;2024-02-21T13:58:12;6.07;;;3.80;;
65461;SDS011;53236;43.666;18.444;2024-02-21T14:00:39;7.00;;;4.23;;
65461;SDS011;53236;43.666;18.444;2024-02-21T14:03:05;6.03;;;4.10;;
65461;SDS011;53236;43.666;18.444;2024-02-21T14:05:30;7.27;;;4.63;;
65461;SDS011;53236;43.666;18.444;2024-02-21T14:07:56;6.60;;;4.30;;
65461;SDS011;53236;43.666;18.444;2024-02-21T14:10:22;7.60;;;3.93;;
65461;SDS011;53236;43.666;18.444;2024-02-21T14:12:48;5.67;;;3.73;;
65461;SDS011;53236;43.666;18.444;2024-02-21T14:15:14;5.03;;;3.67;;
65461;SDS011;53236;43.666;18.444;2024-02-21T14:17:41;6.27;;;5.03;;
65461;SDS011;53236;43.666;18.444;2024-02-21T14:20:09;9.30;;;5.17;;
65461;SDS011;53236;43.666;18.444;2024-02-21T14:22:35;8.73;;;5.67;;
65461;SDS011;53236;43.666;18.444;2024-02-21T14:25:02;8.87;;;5.60;;